Time,TemperatureF,DewpointF,PressureIn,WindDirection,WindDirectionDegrees,WindSpeedMPH,WindSpeedGustMPH,Humidity,HourlyPrecipIn,Conditions,Clouds,dailyrainin,SoftwareType,DateUTC
2013-08-15 00:01:00,75.4,73.9,29.99,SW,218,2.0,21.0,95,0.00,,---,0.00,VWS V12.08,2013-08-15 04:01:00,
2013-08-15 00:02:00,75.4,73.9,29.99,SW,218,0.0,21.0,95,0.00,,---,0.00,VWS V12.08,2013-08-15 04:02:00,
2013-08-15 00:07:00,75.4,73.9,29.99,SW,218,0.0,21.0,95,0.00,,---,0.00,VWS V12.08,2013-08-15 04:07:00,
2013-08-15 00:12:00,75.3,73.8,29.99,SW,218,0.0,21.0,95,0.00,,---,0.00,VWS V12.08,2013-08-15 04:12:00,
2013-08-15 00:17:00,75.3,73.8,29.99,SW,218,0.0,21.0,95,0.00,,---,0.00,VWS V12.08,2013-08-15 04:17:00,
2013-08-15 00:22:00,75.3,73.8,29.99,SW,218,0.0,21.0,95,0.00,,---,0.00,VWS V12.08,2013-08-15 04:22:00,
2013-08-15 00:27:00,75.4,73.9,30.00,SW,218,0.0,21.0,95,0.00,,---,0.00,VWS V12.08,2013-08-15 04:27:00,
2013-08-15 00:32:00,75.4,73.9,29.99,SW,218,0.0,21.0,95,0.00,,---,0.00,VWS V12.08,2013-08-15 04:32:00,
2013-08-15 00:37:00,75.3,73.8,29.99,SW,218,0.0,21.0,95,0.00,,---,0.00,VWS V12.08,2013-08-15 04:37:00,
2013-08-15 00:42:00,75.3,73.8,29.99,SW,218,0.0,21.0,95,0.00,,---,0.00,VWS V12.08,2013-08-15 04:42:00,
2013-08-15 00:47:00,75.3,73.8,29.99,SW,218,0.0,21.0,95,0.00,,---,0.00,VWS V12.08,2013-08-15 04:47:00,
2013-08-15 00:52:00,75.2,73.7,29.98,SW,218,0.0,21.0,95,0.00,,---,0.00,VWS V12.08,2013-08-15 04:52:00,
2013-08-15 00:57:00,75.2,73.7,29.98,SW,218,0.0,21.0,95,0.00,,---,0.00,VWS V12.08,2013-08-15 04:57:00,
2013-08-15 01:02:00,75.2,74.0,29.98,SW,218,0.0,21.0,96,0.00,,---,0.00,VWS V12.08,2013-08-15 05:02:00,
2013-08-15 01:07:00,75.2,74.0,29.98,SW,218,2.0,21.0,96,0.00,,---,0.00,VWS V12.08,2013-08-15 05:07:00,
2013-08-15 01:12:00,75.2,74.0,29.97,SW,218,0.0,21.0,96,0.00,,---,0.00,VWS V12.08,2013-08-15 05:12:00,
2013-08-15 01:17:00,75.1,73.9,29.98,SW,218,0.0,21.0,96,0.00,,---,0.00,VWS V12.08,2013-08-15 05:17:00,
2013-08-15 01:22:00,75.0,73.8,29.98,SW,218,0.0,21.0,96,0.00,,---,0.00,VWS V12.08,2013-08-15 05:22:00,
2013-08-15 01:27:00,74.9,73.7,29.97,SW,218,0.0,21.0,96,0.00,,---,0.00,VWS V12.08,2013-08-15 05:27:00,
2013-08-15 01:32:00,74.9,73.4,29.97,SW,218,0.0,21.0,95,0.00,,---,0.00,VWS V12.08,2013-08-15 05:32:00,
2013-08-15 01:37:00,74.8,73.3,29.97,SW,218,0.0,21.0,95,0.00,,---,0.00,VWS V12.08,2013-08-15 05:37:00,
2013-08-15 01:42:00,74.7,73.2,29.97,SW,218,0.0,21.0,95,0.00,,---,0.00,VWS V12.08,2013-08-15 05:42:00,
2013-08-15 01:47:00,74.6,73.1,29.97,SW,218,0.0,21.0,95,0.00,,---,0.00,VWS V12.08,2013-08-15 05:47:00,
2013-08-15 01:52:00,74.6,73.4,29.96,SW,218,0.0,21.0,96,0.00,,---,0.00,VWS V12.08,2013-08-15 05:52:00,
2013-08-15 01:57:00,74.5,73.3,29.96,SW,218,0.0,21.0,96,0.00,,---,0.00,VWS V12.08,2013-08-15 05:57:00,
2013-08-15 02:02:00,74.4,73.2,29.96,SW,218,0.0,21.0,96,0.00,,---,0.00,VWS V12.08,2013-08-15 06:02:00,
2013-08-15 02:07:00,74.5,73.3,29.96,SW,218,0.0,21.0,96,0.00,,---,0.00,VWS V12.08,2013-08-15 06:07:00,
2013-08-15 02:12:00,74.5,73.3,29.96,SW,218,0.0,21.0,96,0.00,,---,0.00,VWS V12.08,2013-08-15 06:12:00,
2013-08-15 02:17:00,74.4,73.2,29.96,SW,218,0.0,21.0,96,0.00,,---,0.00,VWS V12.08,2013-08-15 06:17:00,
2013-08-15 02:22:00,74.4,73.2,29.95,SW,218,0.0,21.0,96,0.00,,---,0.00,VWS V12.08,2013-08-15 06:22:00,
2013-08-15 02:27:00,74.4,73.2,29.95,SW,218,0.0,21.0,96,0.00,,---,0.00,VWS V12.08,2013-08-15 06:27:00,
2013-08-15 02:32:00,74.2,73.0,29.95,SW,218,0.0,21.0,96,0.00,,---,0.00,VWS V12.08,2013-08-15 06:32:00,
2013-08-15 02:37:00,74.2,73.0,29.95,SW,218,0.0,21.0,96,0.00,,---,0.00,VWS V12.08,2013-08-15 06:37:00,
2013-08-15 02:42:00,74.0,72.8,29.95,SW,218,0.0,21.0,96,0.00,,---,0.00,VWS V12.08,2013-08-15 06:42:00,
2013-08-15 02:47:00,74.0,72.8,29.95,SW,218,0.0,21.0,96,0.00,,---,0.00,VWS V12.08,2013-08-15 06:47:00,
2013-08-15 02:52:00,74.0,72.8,29.95,SW,218,0.0,21.0,96,0.00,,---,0.00,VWS V12.08,2013-08-15 06:52:00,
2013-08-15 02:57:00,74.0,72.8,29.95,SW,218,0.0,21.0,96,0.00,,---,0.00,VWS V12.08,2013-08-15 06:57:00,
2013-08-15 03:02:00,73.9,72.7,29.94,SW,218,0.0,21.0,96,0.00,,---,0.00,VWS V12.08,2013-08-15 07:02:00,
2013-08-15 03:07:00,73.8,72.6,29.95,SW,218,0.0,21.0,96,0.00,,---,0.00,VWS V12.08,2013-08-15 07:07:00,
2013-08-15 03:12:00,73.8,72.6,29.94,SW,218,0.0,21.0,96,0.00,,---,0.00,VWS V12.08,2013-08-15 07:12:00,
2013-08-15 03:17:00,73.8,72.6,29.94,SW,218,0.0,21.0,96,0.00,,---,0.00,VWS V12.08,2013-08-15 07:17:00,
2013-08-15 03:22:00,73.8,72.6,29.94,SW,218,0.0,21.0,96,0.00,,---,0.00,VWS V12.08,2013-08-15 07:22:00,
2013-08-15 03:27:00,73.8,72.6,29.94,SW,218,0.0,21.0,96,0.00,,---,0.00,VWS V12.08,2013-08-15 07:27:00,
2013-08-15 03:32:00,73.7,72.5,29.94,SW,218,0.0,21.0,96,0.00,,---,0.00,VWS V12.08,2013-08-15 07:32:00,
2013-08-15 03:37:00,73.6,72.4,29.94,SW,218,0.0,21.0,96,0.00,,---,0.00,VWS V12.08,2013-08-15 07:37:00,
2013-08-15 17:07:00,73.1,72.2,29.94,North,0,0.0,0.0,97,0.00,,---,0.00,VWS V12.08,2013-08-15 21:07:00,
2013-08-15 17:12:00,93.7,75.1,29.90,SSW,206,7.0,15.0,55,0.00,,---,0.00,VWS V12.08,2013-08-15 21:12:00,
2013-08-15 17:18:00,93.6,75.0,29.90,South,176,6.0,15.0,55,0.00,,---,0.00,VWS V12.08,2013-08-15 21:18:00,
2013-08-15 17:23:00,93.5,75.5,29.90,SSW,196,10.0,15.0,56,0.00,,---,0.00,VWS V12.08,2013-08-15 21:23:00,
2013-08-15 17:28:00,93.4,75.9,29.90,South,187,5.0,15.0,57,0.00,,---,0.00,VWS V12.08,2013-08-15 21:28:00,
2013-08-15 17:33:00,93.1,74.6,29.91,SSW,208,5.0,15.0,55,0.00,,---,0.00,VWS V12.08,2013-08-15 21:33:00,
2013-08-15 17:38:00,92.8,75.3,29.90,SW,215,5.0,15.0,57,0.00,,---,0.00,VWS V12.08,2013-08-15 21:38:00,
2013-08-15 17:43:00,92.2,74.2,29.90,SW,225,7.0,15.0,56,0.00,,---,0.00,VWS V12.08,2013-08-15 21:43:00,
2013-08-15 17:48:00,91.6,74.2,29.90,SW,223,0.0,15.0,57,0.00,,---,0.00,VWS V12.08,2013-08-15 21:48:00,
2013-08-15 17:53:00,91.1,74.8,29.90,SW,223,4.0,15.0,59,0.00,,---,0.00,VWS V12.08,2013-08-15 21:53:00,
2013-08-15 17:58:00,90.6,74.8,29.90,SW,223,0.0,15.0,60,0.00,,---,0.00,VWS V12.08,2013-08-15 21:58:00,
2013-08-15 18:04:00,90.1,74.8,29.90,SW,223,0.0,15.0,61,0.00,,---,0.00,VWS V12.08,2013-08-15 22:04:00,
2013-08-15 18:09:00,89.8,75.1,29.90,SW,223,4.0,15.0,62,0.00,,---,0.00,VWS V12.08,2013-08-15 22:09:00,
2013-08-15 18:15:00,89.5,74.8,29.90,SW,223,0.0,15.0,62,0.00,,---,0.00,VWS V12.08,2013-08-15 22:15:00,
2013-08-15 18:20:00,89.4,76.1,29.91,SW,223,0.0,15.0,65,0.00,,---,0.00,VWS V12.08,2013-08-15 22:20:00,
2013-08-15 18:25:00,89.2,76.4,29.91,SW,223,0.0,15.0,66,0.00,,---,0.00,VWS V12.08,2013-08-15 22:25:00,
2013-08-15 18:30:00,89.1,76.3,29.91,SW,223,0.0,15.0,66,0.00,,---,0.00,VWS V12.08,2013-08-15 22:30:00,
2013-08-15 18:35:00,88.9,75.6,29.90,SW,223,0.0,15.0,65,0.00,,---,0.00,VWS V12.08,2013-08-15 22:35:00,
2013-08-15 18:40:00,88.7,75.9,29.90,SW,223,0.0,15.0,66,0.00,,---,0.00,VWS V12.08,2013-08-15 22:40:00,
2013-08-15 18:45:00,88.4,75.6,29.90,SW,223,0.0,15.0,66,0.00,,---,0.00,VWS V12.08,2013-08-15 22:45:00,
2013-08-15 18:50:00,88.2,75.9,29.90,SW,223,0.0,15.0,67,0.00,,---,0.00,VWS V12.08,2013-08-15 22:50:00,
2013-08-15 18:55:00,88.0,75.2,29.91,SW,227,0.0,15.0,66,0.00,,---,0.00,VWS V12.08,2013-08-15 22:55:00,
2013-08-15 19:00:00,87.9,75.6,29.91,SW,227,3.0,15.0,67,0.00,,---,0.00,VWS V12.08,2013-08-15 23:00:00,
2013-08-15 19:05:00,87.8,75.9,29.92,WSW,249,2.0,15.0,68,0.00,,---,0.00,VWS V12.08,2013-08-15 23:05:00,
2013-08-15 19:10:00,87.4,76.0,29.92,WSW,254,3.0,15.0,69,0.00,,---,0.00,VWS V12.08,2013-08-15 23:10:00,
2013-08-15 19:15:00,87.1,76.6,29.92,WSW,254,2.0,15.0,71,0.00,,---,0.00,VWS V12.08,2013-08-15 23:15:00,
2013-08-15 19:20:00,86.7,76.2,29.92,WSW,254,3.0,15.0,71,0.00,,---,0.00,VWS V12.08,2013-08-15 23:20:00,
2013-08-15 19:25:00,86.4,76.3,29.92,WSW,254,1.0,15.0,72,0.00,,---,0.00,VWS V12.08,2013-08-15 23:25:00,
2013-08-15 19:30:00,85.9,75.0,29.92,West,265,5.0,15.0,70,0.00,,---,0.00,VWS V12.08,2013-08-15 23:30:00,
2013-08-15 19:35:00,85.5,75.0,29.92,West,267,6.0,15.0,71,0.00,,---,0.00,VWS V12.08,2013-08-15 23:35:00,
2013-08-15 19:40:00,85.2,75.2,29.93,WSW,242,2.0,15.0,72,0.00,,---,0.00,VWS V12.08,2013-08-15 23:40:00,
2013-08-15 19:45:00,85.0,74.6,29.94,SW,230,3.0,15.0,71,0.00,,---,0.00,VWS V12.08,2013-08-15 23:45:00,
2013-08-15 19:50:00,84.8,74.8,29.95,WSW,239,3.0,15.0,72,0.00,,---,0.00,VWS V12.08,2013-08-15 23:50:00,
2013-08-15 19:55:00,84.8,74.8,29.96,WSW,240,1.0,15.0,72,0.00,,---,0.00,VWS V12.08,2013-08-15 23:55:00,
2013-08-15 20:01:00,84.7,74.7,29.96,WSW,241,3.0,15.0,72,0.00,,---,0.00,VWS V12.08,2013-08-16 00:01:00,
2013-08-15 20:06:00,84.7,74.7,29.97,WSW,241,2.0,15.0,72,0.00,,---,0.00,VWS V12.08,2013-08-16 00:06:00,
2013-08-15 20:11:00,84.5,74.5,29.97,WSW,242,3.0,15.0,72,0.00,,---,0.00,VWS V12.08,2013-08-16 00:11:00,
2013-08-15 20:16:00,84.3,74.7,29.97,WSW,248,6.0,15.0,73,0.00,,---,0.00,VWS V12.08,2013-08-16 00:16:00,
2013-08-15 20:21:00,84.1,74.9,29.97,WSW,249,4.0,15.0,74,0.00,,---,0.00,VWS V12.08,2013-08-16 00:21:00,
2013-08-15 20:26:00,83.9,74.7,29.98,WSW,244,3.0,15.0,74,0.00,,---,0.00,VWS V12.08,2013-08-16 00:26:00,
2013-08-15 20:31:00,83.6,74.8,29.98,SW,236,5.0,15.0,75,0.00,,---,0.00,VWS V12.08,2013-08-16 00:31:00,
2013-08-15 20:36:00,83.2,75.2,29.98,SW,232,0.0,15.0,77,0.00,,---,0.00,VWS V12.08,2013-08-16 00:36:00,
2013-08-15 20:41:00,82.7,75.2,29.98,SW,232,2.0,15.0,78,0.00,,---,0.00,VWS V12.08,2013-08-16 00:41:00,
2013-08-15 20:46:00,82.0,74.8,29.98,SW,232,3.0,15.0,79,0.00,,---,0.00,VWS V12.08,2013-08-16 00:46:00,
2013-08-15 20:51:00,81.4,74.3,29.98,SW,232,0.0,15.0,79,0.00,,---,0.00,VWS V12.08,2013-08-16 00:51:00,
2013-08-15 20:56:00,81.0,74.2,29.98,SW,232,4.0,15.0,80,0.00,,---,0.00,VWS V12.08,2013-08-16 00:56:00,
2013-08-15 21:01:00,80.6,73.5,29.99,SW,222,4.0,15.0,79,0.00,,---,0.00,VWS V12.08,2013-08-16 01:01:00,
2013-08-15 21:06:00,80.2,73.1,29.99,SSW,212,0.0,15.0,79,0.00,,---,0.00,VWS V12.08,2013-08-16 01:06:00,
2013-08-15 21:12:00,79.8,72.7,30.00,SSW,212,0.0,15.0,79,0.00,,---,0.00,VWS V12.08,2013-08-16 01:12:00,
2013-08-15 21:17:00,79.6,72.5,30.00,SSW,212,0.0,15.0,79,0.00,,---,0.00,VWS V12.08,2013-08-16 01:17:00,
2013-08-15 21:22:00,79.4,72.7,30.00,SSW,212,0.0,15.0,80,0.00,,---,0.00,VWS V12.08,2013-08-16 01:22:00,
2013-08-15 21:27:00,79.3,72.6,30.00,SSW,212,0.0,15.0,80,0.00,,---,0.00,VWS V12.08,2013-08-16 01:27:00,
2013-08-15 21:32:00,79.2,72.9,30.00,SSW,212,0.0,15.0,81,0.00,,---,0.00,VWS V12.08,2013-08-16 01:32:00,
2013-08-15 21:37:00,79.1,72.8,30.00,SSW,212,0.0,15.0,81,0.00,,---,0.00,VWS V12.08,2013-08-16 01:37:00,
2013-08-15 21:43:00,78.9,72.6,30.00,SSW,212,0.0,15.0,81,0.00,,---,0.00,VWS V12.08,2013-08-16 01:43:00,
2013-08-15 21:48:00,78.9,72.9,30.00,SSW,212,0.0,15.0,82,0.00,,---,0.00,VWS V12.08,2013-08-16 01:48:00,
2013-08-15 21:53:00,78.8,72.8,30.00,SSW,212,0.0,15.0,82,0.00,,---,0.00,VWS V12.08,2013-08-16 01:53:00,
2013-08-15 21:58:00,78.7,72.8,30.00,SSW,212,0.0,15.0,82,0.00,,---,0.00,VWS V12.08,2013-08-16 01:58:00,
2013-08-15 22:03:00,78.6,73.0,30.00,SSW,212,0.0,15.0,83,0.00,,---,0.00,VWS V12.08,2013-08-16 02:03:00,
2013-08-15 22:08:00,78.5,73.3,30.00,SSW,212,0.0,15.0,84,0.00,,---,0.00,VWS V12.08,2013-08-16 02:08:00,
2013-08-15 22:13:00,78.3,73.1,30.01,SSW,212,0.0,15.0,84,0.00,,---,0.00,VWS V12.08,2013-08-16 02:13:00,
2013-08-15 22:18:00,78.1,73.2,30.01,SSW,212,0.0,15.0,85,0.00,,---,0.00,VWS V12.08,2013-08-16 02:18:00,
2013-08-15 22:23:00,77.9,73.0,30.01,SSW,212,0.0,15.0,85,0.00,,---,0.00,VWS V12.08,2013-08-16 02:23:00,
2013-08-15 22:28:00,77.8,72.9,30.01,SSW,212,0.0,15.0,85,0.00,,---,0.00,VWS V12.08,2013-08-16 02:28:00,
2013-08-15 22:33:00,77.7,73.2,30.01,SSW,212,0.0,15.0,86,0.00,,---,0.00,VWS V12.08,2013-08-16 02:33:00,
2013-08-15 22:38:00,77.5,73.0,30.01,SSW,212,0.0,15.0,86,0.00,,---,0.00,VWS V12.08,2013-08-16 02:38:00,
2013-08-15 22:43:00,77.4,73.2,30.01,SSW,212,0.0,15.0,87,0.00,,---,0.00,VWS V12.08,2013-08-16 02:43:00,
2013-08-15 22:48:00,77.3,73.1,30.01,SSW,212,0.0,15.0,87,0.00,,---,0.00,VWS V12.08,2013-08-16 02:48:00,
2013-08-15 22:53:00,77.3,73.1,30.01,SSW,212,0.0,15.0,87,0.00,,---,0.00,VWS V12.08,2013-08-16 02:53:00,
2013-08-15 22:58:00,77.4,73.6,30.01,SSW,212,0.0,15.0,88,0.00,,---,0.00,VWS V12.08,2013-08-16 02:58:00,
2013-08-15 23:03:00,77.4,73.6,30.01,SSW,212,0.0,15.0,88,0.00,,---,0.00,VWS V12.08,2013-08-16 03:03:00,
2013-08-15 23:08:00,77.5,73.7,30.01,SSW,212,0.0,15.0,88,0.00,,---,0.00,VWS V12.08,2013-08-16 03:08:00,
2013-08-15 23:13:00,77.5,73.7,30.01,SSW,212,0.0,15.0,88,0.00,,---,0.00,VWS V12.08,2013-08-16 03:13:00,
2013-08-15 23:18:00,77.5,73.7,30.01,SSW,212,0.0,15.0,88,0.00,,---,0.00,VWS V12.08,2013-08-16 03:18:00,
2013-08-15 23:23:00,77.4,73.6,30.01,SSW,212,0.0,15.0,88,0.00,,---,0.00,VWS V12.08,2013-08-16 03:23:00,
2013-08-15 23:28:00,77.4,73.6,30.01,SSW,212,0.0,15.0,88,0.00,,---,0.00,VWS V12.08,2013-08-16 03:28:00,
2013-08-15 23:33:00,77.4,73.6,30.00,SSW,212,0.0,15.0,88,0.00,,---,0.00,VWS V12.08,2013-08-16 03:33:00,
2013-08-15 23:38:00,77.4,73.6,30.00,SSW,212,0.0,15.0,88,0.00,,---,0.00,VWS V12.08,2013-08-16 03:38:00,
2013-08-15 23:43:00,77.4,73.6,30.00,SSW,212,0.0,15.0,88,0.00,,---,0.00,VWS V12.08,2013-08-16 03:43:00,
2013-08-15 23:48:00,77.3,73.5,30.00,SSW,212,0.0,15.0,88,0.00,,---,0.00,VWS V12.08,2013-08-16 03:48:00,
2013-08-15 23:53:00,77.2,73.4,30.00,SSW,212,0.0,15.0,88,0.00,,---,0.00,VWS V12.08,2013-08-16 03:53:00,
2013-08-15 23:58:00,77.1,73.6,30.00,SSW,212,0.0,15.0,89,0.00,,---,0.00,VWS V12.08,2013-08-16 03:58:00,